createdAt,value
2022-08-22T00:00:34.730Z,18.80
2022-08-22T00:06:03.070Z,18.90
2022-08-22T00:08:36.084Z,18.90
2022-08-22T00:11:25.865Z,18.80
2022-08-22T00:14:15.747Z,18.80
2022-08-22T00:17:20.370Z,18.80
2022-08-22T00:19:54.774Z,18.80
2022-08-22T00:22:55.569Z,18.90
2022-08-22T00:25:31.249Z,18.80
2022-08-22T00:28:10.664Z,18.80
2022-08-22T00:31:01.290Z,18.90
2022-08-22T00:33:37.757Z,18.80
2022-08-22T00:36:25.003Z,18.80
2022-08-22T00:39:07.232Z,18.80
2022-08-22T00:42:10.137Z,18.80
2022-08-22T00:44:39.790Z,18.80
2022-08-22T00:47:12.562Z,18.80
2022-08-22T00:50:00.321Z,18.70
2022-08-22T00:52:59.006Z,18.80
2022-08-22T00:55:34.831Z,18.80
2022-08-22T00:58:33.082Z,18.70
2022-08-22T01:01:12.526Z,18.60
2022-08-22T01:03:48.369Z,18.50
2022-08-22T01:06:56.182Z,18.40
2022-08-22T01:09:54.369Z,18.40
2022-08-22T01:12:33.299Z,18.40
2022-08-22T01:15:09.577Z,18.50
2022-08-22T01:17:54.263Z,18.50
2022-08-22T01:20:28.123Z,18.50
2022-08-22T01:23:03.690Z,18.40
2022-08-22T01:25:33.802Z,18.60
2022-08-22T01:28:26.808Z,18.60
2022-08-22T01:31:00.465Z,18.80
2022-08-22T01:33:57.998Z,18.80
2022-08-22T01:36:50.674Z,18.80
2022-08-22T01:39:45.170Z,18.60
2022-08-22T01:42:20.896Z,18.50
2022-08-22T01:45:15.691Z,18.50
2022-08-22T01:47:42.602Z,18.50
2022-08-22T01:50:48.233Z,18.60
2022-08-22T01:53:24.330Z,18.60
2022-08-22T01:56:11.234Z,18.70
2022-08-22T01:59:01.837Z,18.60
2022-08-22T02:01:35.349Z,18.50
2022-08-22T02:04:10.885Z,18.40
2022-08-22T02:07:06.687Z,18.40
2022-08-22T02:09:48.980Z,18.40
2022-08-22T02:12:43.312Z,18.40
2022-08-22T02:15:41.167Z,18.50
2022-08-22T02:18:24.801Z,18.60
2022-08-22T02:20:59.838Z,18.50
2022-08-22T02:24:05.511Z,18.50
2022-08-22T02:26:50.344Z,18.50
2022-08-22T02:29:41.727Z,18.60
2022-08-22T02:32:36.760Z,18.50
2022-08-22T02:35:03.862Z,18.50
2022-08-22T02:37:47.374Z,18.60
2022-08-22T02:40:27.500Z,18.40
2022-08-22T02:43:18.202Z,18.50
2022-08-22T02:46:08.246Z,18.40
2022-08-22T02:48:44.638Z,18.40
2022-08-22T02:51:33.700Z,18.50
2022-08-22T02:54:19.544Z,18.40
2022-08-22T02:57:03.379Z,18.30
2022-08-22T02:59:58.851Z,18.20
2022-08-22T03:02:28.466Z,18.10
2022-08-22T03:04:57.179Z,18.00
2022-08-22T03:07:36.460Z,18.40
2022-08-22T03:10:23.130Z,18.30
2022-08-22T03:12:57.298Z,18.20
2022-08-22T03:15:37.980Z,18.10
2022-08-22T03:18:05.486Z,18.20
2022-08-22T03:21:00.070Z,18.20
2022-08-22T03:23:51.133Z,18.20
2022-08-22T03:26:29.534Z,18.30
2022-08-22T03:29:10.554Z,18.20
2022-08-22T03:31:38.085Z,18.30
2022-08-22T03:34:24.820Z,18.40
2022-08-22T03:37:10.557Z,18.60
2022-08-22T03:39:46.691Z,18.60
2022-08-22T03:42:16.425Z,18.70
2022-08-22T03:44:54.298Z,18.60
2022-08-22T03:47:47.234Z,18.50
2022-08-22T03:50:32.637Z,18.50
2022-08-22T03:53:37.760Z,18.50
2022-08-22T03:56:44.840Z,18.50
2022-08-22T03:59:42.727Z,18.60
2022-08-22T04:02:43.159Z,18.50
2022-08-22T04:05:48.662Z,18.60
2022-08-22T04:08:43.770Z,18.60
2022-08-22T04:11:39.736Z,18.60
2022-08-22T04:14:10.099Z,18.60
2022-08-22T04:17:15.272Z,18.60
2022-08-22T04:20:00.661Z,18.80
2022-08-22T04:23:10.141Z,18.80
2022-08-22T04:26:10.813Z,19.10
2022-08-22T04:29:05.879Z,19.30
2022-08-22T04:31:50.590Z,19.20
2022-08-22T04:34:28.759Z,19.20
2022-08-22T04:37:05.664Z,19.40
2022-08-22T04:39:51.640Z,19.50
2022-08-22T04:42:33.789Z,19.50
2022-08-22T04:45:13.651Z,19.70
2022-08-22T04:48:12.572Z,19.70
2022-08-22T04:50:51.118Z,19.70
2022-08-22T04:53:31.701Z,19.80
2022-08-22T04:56:25.389Z,19.80
2022-08-22T04:59:03.570Z,19.80
2022-08-22T05:01:54.731Z,19.90
2022-08-22T05:04:27.426Z,20.10
2022-08-22T05:06:59.624Z,20.20
2022-08-22T05:09:31.903Z,20.20
2022-08-22T05:12:07.434Z,20.20
2022-08-22T05:14:41.464Z,20.40
2022-08-22T05:17:12.562Z,20.50
2022-08-22T05:19:50.784Z,20.40
2022-08-22T05:22:24.603Z,20.30
2022-08-22T05:25:00.248Z,20.10
2022-08-22T05:27:34.761Z,20.20
2022-08-22T05:30:16.444Z,20.10
2022-08-22T05:32:51.993Z,20.10
2022-08-22T05:35:26.155Z,20.20
2022-08-22T05:37:55.223Z,20.30
2022-08-22T05:40:26.412Z,20.30
2022-08-22T05:42:56.120Z,20.30
2022-08-22T05:45:23.879Z,20.40
2022-08-22T05:48:08.984Z,20.50
2022-08-22T05:50:38.387Z,20.70
2022-08-22T05:53:13.013Z,20.70
2022-08-22T05:56:04.570Z,20.80
2022-08-22T05:58:41.526Z,21.20
2022-08-22T06:01:31.582Z,21.20
2022-08-22T06:04:05.835Z,21.20
2022-08-22T06:06:49.737Z,21.30
2022-08-22T06:09:44.494Z,21.40
2022-08-22T06:12:22.224Z,21.40
2022-08-22T06:15:12.924Z,21.60
2022-08-22T06:17:45.727Z,21.70
2022-08-22T06:20:21.890Z,21.80
2022-08-22T06:23:01.167Z,22.00
2022-08-22T06:25:34.307Z,22.10
2022-08-22T06:28:07.199Z,22.30
2022-08-22T06:30:36.679Z,22.30
2022-08-22T06:33:06.738Z,22.40
2022-08-22T06:36:21.165Z,22.60
2022-08-22T06:39:03.016Z,22.70
2022-08-22T06:41:33.618Z,22.90
2022-08-22T06:44:04.038Z,23.10
2022-08-22T06:49:02.461Z,23.10
2022-08-22T06:51:31.059Z,23.20
2022-08-22T06:54:03.556Z,23.10
2022-08-22T06:56:38.937Z,23.10
2022-08-22T06:59:10.997Z,23.30
2022-08-22T07:01:51.241Z,23.40
2022-08-22T07:04:23.908Z,23.30
2022-08-22T07:06:51.481Z,23.30
2022-08-22T07:09:26.422Z,23.00
2022-08-22T07:11:56.754Z,23.00
2022-08-22T07:14:40.879Z,23.20
2022-08-22T07:17:14.992Z,23.50
2022-08-22T07:19:59.569Z,23.80
2022-08-22T07:22:32.509Z,23.80
2022-08-22T07:25:11.183Z,23.70
2022-08-22T07:27:52.994Z,23.80
2022-08-22T07:30:27.338Z,23.90
2022-08-22T07:33:26.253Z,24.00
2022-08-22T07:36:02.036Z,23.90
2022-08-22T07:38:43.973Z,23.70
2022-08-22T07:41:18.641Z,23.70
2022-08-22T07:43:51.686Z,23.90
2022-08-22T07:46:31.502Z,24.10
2022-08-22T07:49:22.327Z,24.20
2022-08-22T07:51:54.734Z,24.40
2022-08-22T07:54:45.621Z,24.90
2022-08-22T07:57:17.515Z,25.30
2022-08-22T07:59:50.866Z,25.40
2022-08-22T08:02:20.022Z,25.20
2022-08-22T08:04:49.628Z,25.10
2022-08-22T08:07:18.557Z,25.20
2022-08-22T08:09:51.024Z,25.00
2022-08-22T08:12:22.107Z,24.90
2022-08-22T08:14:53.598Z,24.90
2022-08-22T08:17:32.174Z,24.70
2022-08-22T08:20:04.938Z,24.80
2022-08-22T08:22:32.977Z,25.00
2022-08-22T08:25:02.652Z,25.00
2022-08-22T08:27:50.323Z,25.00
2022-08-22T08:30:35.923Z,24.90
2022-08-22T08:33:24.441Z,25.00
2022-08-22T08:36:02.470Z,25.10
2022-08-22T08:38:37.956Z,25.10
2022-08-22T08:41:32.575Z,25.20
2022-08-22T08:44:29.527Z,24.90
2022-08-22T08:47:30.710Z,25.00
2022-08-22T08:50:26.644Z,25.00
2022-08-22T08:53:15.090Z,25.00
2022-08-22T08:55:51.929Z,24.90
2022-08-22T08:58:34.655Z,25.00
2022-08-22T09:01:07.884Z,25.30
2022-08-22T09:03:53.910Z,25.10
2022-08-22T09:06:38.797Z,25.10
2022-08-22T09:09:27.447Z,25.40
2022-08-22T09:12:11.309Z,25.30
2022-08-22T09:14:44.372Z,25.40
2022-08-22T09:17:36.094Z,25.40
2022-08-22T09:20:35.420Z,25.50
2022-08-22T09:23:33.783Z,25.50
2022-08-22T09:26:25.382Z,25.70
2022-08-22T09:29:02.009Z,25.80
2022-08-22T09:31:47.460Z,25.70
2022-08-22T09:34:25.845Z,25.70
2022-08-22T09:37:06.562Z,25.90
2022-08-22T09:40:00.001Z,25.80
2022-08-22T09:42:51.181Z,25.90
2022-08-22T09:45:36.809Z,26.00
2022-08-22T09:48:38.486Z,26.10
2022-08-22T09:51:31.871Z,26.20
2022-08-22T09:54:33.457Z,26.10
2022-08-22T09:57:27.334Z,26.00
2022-08-22T10:00:22.166Z,26.00
2022-08-22T10:03:02.621Z,26.20
2022-08-22T10:05:43.791Z,26.40
2022-08-22T10:08:14.479Z,26.60
2022-08-22T10:11:02.100Z,26.60
2022-08-22T10:13:57.860Z,26.60
2022-08-22T10:16:39.620Z,26.60
2022-08-22T10:19:24.984Z,26.60
2022-08-22T10:22:10.898Z,26.50
2022-08-22T10:24:44.289Z,26.30
2022-08-22T10:27:19.720Z,26.20
2022-08-22T10:30:19.011Z,26.30
2022-08-22T10:33:01.190Z,26.40
2022-08-22T10:35:41.321Z,26.50
2022-08-22T10:38:25.901Z,26.50
2022-08-22T10:41:02.473Z,26.50
2022-08-22T10:44:01.370Z,26.40
2022-08-22T10:47:02.976Z,26.40
2022-08-22T10:50:20.241Z,26.60
2022-08-22T10:53:14.167Z,26.60
2022-08-22T10:55:44.715Z,26.80
2022-08-22T10:58:40.541Z,26.80
2022-08-22T11:01:37.961Z,27.00
2022-08-22T11:04:28.216Z,27.00
2022-08-22T11:07:14.622Z,27.00
2022-08-22T11:09:55.172Z,27.10
2022-08-22T11:12:50.585Z,27.10
2022-08-22T11:15:35.224Z,27.20
2022-08-22T11:18:26.836Z,27.00
2022-08-22T11:21:07.292Z,27.00
2022-08-22T11:24:02.070Z,26.90
2022-08-22T11:26:35.805Z,26.90
2022-08-22T11:29:26.381Z,27.10
2022-08-22T11:32:19.507Z,27.00
2022-08-22T11:35:02.607Z,27.00
2022-08-22T11:37:42.415Z,27.00
2022-08-22T11:40:28.436Z,27.00
2022-08-22T11:43:06.170Z,27.00
2022-08-22T11:45:44.487Z,26.90
2022-08-22T11:48:14.524Z,27.00
2022-08-22T11:51:00.376Z,27.10
2022-08-22T11:53:54.845Z,27.00
2022-08-22T11:56:41.492Z,27.00
2022-08-22T11:59:29.824Z,27.20
2022-08-22T12:02:05.033Z,27.30
2022-08-22T12:04:47.109Z,27.40
2022-08-22T12:07:31.328Z,27.30
2022-08-22T12:10:08.105Z,27.30
2022-08-22T12:12:54.017Z,27.20
2022-08-22T12:15:24.611Z,27.10
2022-08-22T12:18:06.271Z,27.10
2022-08-22T12:21:11.502Z,26.90
2022-08-22T12:23:55.850Z,27.00
2022-08-22T12:27:01.307Z,27.00
2022-08-22T12:29:54.959Z,27.00
2022-08-22T12:32:49.182Z,27.10
2022-08-22T12:35:16.248Z,27.00
2022-08-22T12:38:01.252Z,27.10
2022-08-22T12:40:49.409Z,27.10
2022-08-22T12:43:19.163Z,27.10
2022-08-22T12:45:54.999Z,27.10
2022-08-22T12:48:21.898Z,27.20
2022-08-22T12:50:57.331Z,27.20
2022-08-22T12:53:45.162Z,27.30
2022-08-22T12:56:30.636Z,27.20
2022-08-22T12:59:34.079Z,27.30
2022-08-22T13:02:13.354Z,27.30
2022-08-22T13:04:50.718Z,27.30
2022-08-22T13:07:30.642Z,27.40
2022-08-22T13:10:17.403Z,27.40
2022-08-22T13:12:48.600Z,27.40
2022-08-22T13:15:36.315Z,27.40
2022-08-22T13:18:29.208Z,27.40
2022-08-22T13:21:02.349Z,27.30
2022-08-22T13:23:45.456Z,27.30
2022-08-22T13:26:32.176Z,27.30
2022-08-22T13:31:59.176Z,27.40
2022-08-22T13:34:47.032Z,27.50
2022-08-22T13:37:24.405Z,27.50
2022-08-22T13:39:58.486Z,27.40
2022-08-22T13:42:30.148Z,27.30
2022-08-22T13:45:05.428Z,27.30
2022-08-22T13:47:39.726Z,27.20
2022-08-22T13:50:19.500Z,27.30
2022-08-22T13:53:05.696Z,27.20
2022-08-22T13:56:01.597Z,27.20
2022-08-22T13:58:47.581Z,27.10
2022-08-22T14:01:31.544Z,27.20
2022-08-22T14:04:01.373Z,27.10
2022-08-22T14:06:57.039Z,27.00
2022-08-22T14:09:38.848Z,27.10
2022-08-22T14:12:25.200Z,27.00
2022-08-22T14:14:59.643Z,27.00
2022-08-22T14:17:42.823Z,27.00
2022-08-22T14:20:32.024Z,27.10
2022-08-22T14:23:29.418Z,27.10
2022-08-22T14:25:57.471Z,27.10
2022-08-22T14:28:31.224Z,27.00
2022-08-22T14:31:13.498Z,26.90
2022-08-22T14:33:55.978Z,26.80
2022-08-22T14:36:29.150Z,26.90
2022-08-22T14:39:01.986Z,27.00
2022-08-22T14:41:56.183Z,26.90
2022-08-22T14:44:32.404Z,26.80
2022-08-22T14:47:08.326Z,26.80
2022-08-22T14:49:56.415Z,26.80
2022-08-22T14:52:29.386Z,26.80
2022-08-22T14:55:08.809Z,26.70
2022-08-22T14:57:44.763Z,26.70
2022-08-22T15:00:13.130Z,26.70
2022-08-22T15:02:42.098Z,26.60
2022-08-22T15:05:21.534Z,26.80
2022-08-22T15:07:56.203Z,26.70
2022-08-22T15:10:31.786Z,26.70
2022-08-22T15:13:05.337Z,26.80
2022-08-22T15:15:53.406Z,26.50
2022-08-22T15:18:28.973Z,26.60
2022-08-22T15:21:21.022Z,26.50
2022-08-22T15:23:59.594Z,26.40
2022-08-22T15:26:50.102Z,26.40
2022-08-22T15:29:27.642Z,26.30
2022-08-22T15:32:00.410Z,26.20
2022-08-22T15:34:32.731Z,26.10
2022-08-22T15:37:16.704Z,26.10
2022-08-22T15:40:08.129Z,26.00
2022-08-22T15:42:48.274Z,26.00
2022-08-22T15:45:30.299Z,25.90
2022-08-22T15:48:04.456Z,25.90
2022-08-22T15:50:54.851Z,25.90
2022-08-22T15:53:26.570Z,25.80
2022-08-22T15:56:11.954Z,25.80
2022-08-22T15:58:49.523Z,25.80
2022-08-22T16:01:22.495Z,25.80
2022-08-22T16:04:14.111Z,25.80
2022-08-22T16:06:58.211Z,25.80
2022-08-22T16:09:46.872Z,25.70
2022-08-22T16:12:38.251Z,25.60
2022-08-22T16:15:43.688Z,25.50
2022-08-22T16:18:33.306Z,25.40
2022-08-22T16:21:04.495Z,25.40
2022-08-22T16:23:50.372Z,25.40
2022-08-22T16:26:31.637Z,25.40
2022-08-22T16:29:14.704Z,25.30
2022-08-22T16:31:44.923Z,25.20
2022-08-22T16:34:18.295Z,25.20
2022-08-22T16:39:32.525Z,24.90
2022-08-22T16:42:19.654Z,25.00
2022-08-22T16:47:41.777Z,24.90
2022-08-22T16:50:18.481Z,24.70
2022-08-22T16:53:30.310Z,24.70
2022-08-22T16:56:06.116Z,24.70
2022-08-22T16:58:57.961Z,24.50
2022-08-22T17:01:51.002Z,24.40
2022-08-22T17:04:35.419Z,24.60
2022-08-22T17:07:33.947Z,24.40
2022-08-22T17:10:22.521Z,24.30
2022-08-22T17:13:27.499Z,24.20
2022-08-22T17:15:54.492Z,24.10
2022-08-22T17:18:30.447Z,24.00
2022-08-22T17:21:30.457Z,24.00
2022-08-22T17:24:31.643Z,23.80
2022-08-22T17:27:28.976Z,23.70
2022-08-22T17:30:20.468Z,23.60
2022-08-22T17:33:21.129Z,23.60
2022-08-22T17:36:08.996Z,23.30
2022-08-22T17:39:19.088Z,23.30
2022-08-22T17:42:10.396Z,23.20
2022-08-22T17:44:51.046Z,23.00
2022-08-22T17:47:28.151Z,23.00
2022-08-22T17:50:03.398Z,23.10
2022-08-22T17:52:58.842Z,23.00
2022-08-22T17:55:56.595Z,22.80
2022-08-22T17:58:37.475Z,22.80
2022-08-22T18:01:15.416Z,22.90
2022-08-22T18:03:54.066Z,22.60
2022-08-22T18:06:26.692Z,22.80
2022-08-22T18:09:17.104Z,22.80
2022-08-22T18:11:52.368Z,22.60
2022-08-22T18:14:35.221Z,22.50
2022-08-22T18:17:33.856Z,22.50
2022-08-22T18:20:27.545Z,22.60
2022-08-22T18:23:36.072Z,22.50
2022-08-22T18:26:31.697Z,22.60
2022-08-22T18:28:58.837Z,22.50
2022-08-22T18:31:45.682Z,22.50
2022-08-22T18:34:33.316Z,22.40
2022-08-22T18:37:19.198Z,22.40
2022-08-22T18:39:59.928Z,22.30
2022-08-22T18:42:49.999Z,22.20
2022-08-22T18:45:43.835Z,22.10
2022-08-22T18:48:34.710Z,22.10
2022-08-22T18:51:27.213Z,22.00
2022-08-22T18:53:57.837Z,21.90
2022-08-22T18:56:49.985Z,21.90
2022-08-22T18:59:43.848Z,21.90
2022-08-22T19:02:26.256Z,21.90
2022-08-22T19:05:25.253Z,21.80
2022-08-22T19:08:01.144Z,21.80
2022-08-22T19:10:45.309Z,21.70
2022-08-22T19:13:21.617Z,21.70
2022-08-22T19:16:05.203Z,21.60
2022-08-22T19:18:51.210Z,21.50
2022-08-22T19:21:45.273Z,21.60
2022-08-22T19:24:29.844Z,21.50
2022-08-22T19:27:19.862Z,21.40
2022-08-22T19:29:48.854Z,21.40
2022-08-22T19:32:47.283Z,21.40
2022-08-22T19:35:24.884Z,21.30
2022-08-22T19:38:00.905Z,21.30
2022-08-22T19:40:55.989Z,21.30
2022-08-22T19:43:37.437Z,21.30
2022-08-22T19:46:12.092Z,21.20
2022-08-22T19:48:54.126Z,21.20
2022-08-22T19:51:26.750Z,21.20
2022-08-22T19:54:16.400Z,21.20
2022-08-22T19:57:03.801Z,21.20
2022-08-22T20:00:00.489Z,21.30
2022-08-22T20:02:49.948Z,21.30
2022-08-22T20:05:22.255Z,21.30
2022-08-22T20:08:01.131Z,21.30
2022-08-22T20:10:49.656Z,21.20
2022-08-22T20:13:23.840Z,21.20
2022-08-22T20:16:01.627Z,21.20
2022-08-22T20:19:05.133Z,21.20
2022-08-22T20:22:03.089Z,21.10
2022-08-22T20:24:43.800Z,21.10
2022-08-22T20:27:26.750Z,21.10
2022-08-22T20:30:07.806Z,21.00
2022-08-22T20:32:42.103Z,21.00
2022-08-22T20:35:18.301Z,21.00
2022-08-22T20:38:06.773Z,21.00
2022-08-22T20:40:59.400Z,20.90
2022-08-22T20:43:39.268Z,20.90
2022-08-22T20:46:35.682Z,20.80
2022-08-22T20:49:04.086Z,20.80
2022-08-22T20:51:33.477Z,20.80
2022-08-22T20:54:09.997Z,20.80
2022-08-22T20:56:48.635Z,20.70
2022-08-22T20:59:20.669Z,20.70
2022-08-22T21:01:48.639Z,20.60
2022-08-22T21:04:19.826Z,20.60
2022-08-22T21:06:46.952Z,20.60
2022-08-22T21:09:37.326Z,20.60
2022-08-22T21:12:09.216Z,20.80
2022-08-22T21:14:44.342Z,20.80
2022-08-22T21:17:29.183Z,20.80
2022-08-22T21:20:24.849Z,20.70
2022-08-22T21:22:52.360Z,20.60
2022-08-22T21:25:19.423Z,20.50
2022-08-22T21:27:48.498Z,20.60
2022-08-22T21:30:24.460Z,20.50
2022-08-22T21:32:55.994Z,20.40
2022-08-22T21:35:32.047Z,20.30
2022-08-22T21:38:01.279Z,20.40
2022-08-22T21:40:35.142Z,20.30
2022-08-22T21:43:06.967Z,20.20
2022-08-22T21:45:39.967Z,20.20
2022-08-22T21:48:45.412Z,20.20
2022-08-22T21:51:45.750Z,20.10
2022-08-22T21:54:31.935Z,20.00
2022-08-22T21:57:20.562Z,20.00
2022-08-22T21:59:59.519Z,19.90
2022-08-22T22:02:39.697Z,19.90
2022-08-22T22:05:13.723Z,19.80
2022-08-22T22:07:43.784Z,19.70
2022-08-22T22:10:16.405Z,19.60
2022-08-22T22:12:45.304Z,19.60
2022-08-22T22:15:16.688Z,19.60
2022-08-22T22:17:43.995Z,19.50
2022-08-22T22:20:12.336Z,19.50
2022-08-22T22:22:41.215Z,19.40
2022-08-22T22:25:40.703Z,19.30
2022-08-22T22:28:25.188Z,19.40
2022-08-22T22:30:53.516Z,19.20
2022-08-22T22:33:23.693Z,19.30
2022-08-22T22:35:52.927Z,19.30
2022-08-22T22:38:23.861Z,19.20
2022-08-22T22:40:52.525Z,19.40
2022-08-22T22:43:19.975Z,19.40
2022-08-22T22:45:46.950Z,19.30
2022-08-22T22:48:24.195Z,19.20
2022-08-22T22:50:52.534Z,19.10
2022-08-22T22:53:21.425Z,19.10
2022-08-22T22:56:09.168Z,19.10
2022-08-22T22:58:36.928Z,19.10
2022-08-22T23:01:16.404Z,18.90
2022-08-22T23:03:44.893Z,18.90
2022-08-22T23:06:18.099Z,18.90
2022-08-22T23:08:45.065Z,18.80
2022-08-22T23:11:13.934Z,18.80
2022-08-22T23:13:44.416Z,18.80
2022-08-22T23:16:21.037Z,18.60
2022-08-22T23:18:48.685Z,18.50
2022-08-22T23:21:19.451Z,18.50
2022-08-22T23:23:47.358Z,18.50
2022-08-22T23:26:15.388Z,18.50
2022-08-22T23:28:43.485Z,18.40
2022-08-22T23:31:12.302Z,18.30
2022-08-22T23:33:39.562Z,18.30
2022-08-22T23:36:15.548Z,18.50
2022-08-22T23:38:43.177Z,18.30
2022-08-22T23:41:13.081Z,18.30
2022-08-22T23:43:45.619Z,18.30
2022-08-22T23:46:14.176Z,18.30
2022-08-22T23:48:42.194Z,18.20
2022-08-22T23:51:14.653Z,18.10
2022-08-22T23:53:43.796Z,18.20
2022-08-22T23:56:11.009Z,18.10
2022-08-22T23:58:48.938Z,18.00
